createdAt,value
2018-12-19T00:00:20.466Z,0.98
2018-12-19T00:02:49.188Z,0.97
2018-12-19T00:05:18.573Z,0.98
2018-12-19T00:07:47.379Z,0.97
2018-12-19T00:10:16.417Z,0.97
2018-12-19T00:12:45.493Z,0.96
2018-12-19T00:15:14.746Z,0.95
2018-12-19T00:17:43.740Z,0.96
2018-12-19T00:20:12.879Z,0.94
2018-12-19T00:22:41.944Z,0.93
2018-12-19T00:25:11.130Z,0.94
2018-12-19T00:27:40.252Z,0.94
2018-12-19T00:30:09.376Z,0.98
2018-12-19T00:32:38.469Z,0.95
2018-12-19T00:35:07.269Z,0.97
2018-12-19T00:37:36.458Z,0.97
2018-12-19T00:40:05.545Z,0.98
2018-12-19T00:42:34.634Z,1.01
2018-12-19T00:45:03.593Z,1.01
2018-12-19T00:47:32.665Z,1.00
2018-12-19T00:50:01.874Z,1.00
2018-12-19T00:52:30.625Z,1.00
2018-12-19T00:54:59.834Z,1.00
2018-12-19T00:57:28.846Z,1.02
2018-12-19T00:59:57.474Z,1.03
2018-12-19T01:02:26.521Z,1.06
2018-12-19T01:04:55.443Z,1.13
2018-12-19T01:07:24.613Z,1.11
2018-12-19T01:09:53.524Z,1.13
2018-12-19T01:12:22.537Z,1.15
2018-12-19T01:14:51.485Z,1.15
2018-12-19T01:17:20.587Z,1.15
2018-12-19T01:19:49.342Z,1.15
2018-12-19T01:22:18.357Z,1.16
2018-12-19T01:24:47.386Z,1.14
2018-12-19T01:27:16.548Z,1.15
2018-12-19T01:29:45.601Z,1.16
2018-12-19T01:32:14.355Z,1.15
2018-12-19T01:34:43.482Z,1.16
2018-12-19T01:37:12.320Z,1.19
2018-12-19T01:39:41.358Z,1.24
2018-12-19T01:42:10.422Z,1.22
2018-12-19T01:44:39.389Z,1.28
2018-12-19T01:47:08.483Z,1.31
2018-12-19T01:49:37.548Z,1.29
2018-12-19T01:52:06.719Z,1.34
2018-12-19T01:54:35.537Z,1.35
2018-12-19T01:57:04.486Z,1.32
2018-12-19T01:59:33.634Z,1.36
2018-12-19T02:02:02.555Z,1.42
2018-12-19T02:04:31.403Z,1.49
2018-12-19T02:07:00.544Z,1.50
2018-12-19T02:09:29.240Z,1.55
2018-12-19T02:11:58.053Z,1.51
2018-12-19T02:14:27.086Z,1.54
2018-12-19T02:16:56.071Z,1.57
2018-12-19T02:19:25.077Z,1.57
2018-12-19T02:21:54.066Z,1.54
2018-12-19T02:24:23.092Z,1.51
2018-12-19T02:26:52.150Z,1.59
2018-12-19T02:29:21.227Z,1.60
2018-12-19T02:31:50.205Z,1.57
2018-12-19T02:34:19.237Z,1.61
2018-12-19T02:36:48.127Z,1.69
2018-12-19T02:39:17.317Z,1.65
2018-12-19T02:41:46.094Z,1.62
2018-12-19T02:44:15.014Z,1.60
2018-12-19T02:46:43.707Z,1.60
2018-12-19T02:49:12.699Z,1.65
2018-12-19T02:51:41.871Z,1.65
2018-12-19T02:54:10.892Z,1.70
2018-12-19T02:56:39.753Z,1.64
2018-12-19T02:59:08.887Z,1.54
2018-12-19T03:01:37.637Z,1.43
2018-12-19T03:04:06.605Z,1.48
2018-12-19T03:06:35.659Z,1.55
2018-12-19T03:09:06.926Z,1.59
2018-12-19T03:11:35.771Z,1.58
2018-12-19T03:14:04.933Z,1.68
2018-12-19T03:16:34.046Z,1.64
2018-12-19T03:19:03.003Z,1.68
2018-12-19T03:21:32.026Z,1.63
2018-12-19T03:24:00.924Z,1.60
2018-12-19T03:26:29.965Z,1.65
2018-12-19T03:28:58.893Z,1.60
2018-12-19T03:31:27.901Z,1.66
2018-12-19T03:33:56.765Z,1.61
2018-12-19T03:36:25.924Z,1.57
2018-12-19T03:38:55.076Z,1.54
2018-12-19T03:41:24.244Z,1.54
2018-12-19T03:43:53.226Z,1.52
2018-12-19T03:46:22.299Z,1.54
2018-12-19T03:48:57.990Z,1.52
2018-12-19T03:51:27.016Z,1.52
2018-12-19T03:53:55.923Z,1.49
2018-12-19T03:56:24.682Z,1.48
2018-12-19T03:58:53.835Z,1.43
2018-12-19T04:01:22.917Z,1.45
2018-12-19T04:03:51.718Z,1.40
2018-12-19T04:06:20.799Z,1.41
2018-12-19T04:08:49.852Z,1.42
2018-12-19T04:11:19.047Z,1.36
2018-12-19T04:13:47.801Z,1.36
2018-12-19T04:16:16.621Z,1.41
2018-12-19T04:18:45.534Z,1.42
2018-12-19T04:21:14.661Z,1.38
2018-12-19T04:23:43.844Z,1.35
2018-12-19T04:26:13.000Z,1.34
2018-12-19T04:28:42.109Z,1.34
2018-12-19T04:31:10.891Z,1.35
2018-12-19T04:33:39.973Z,1.35
2018-12-19T04:36:08.934Z,1.37
2018-12-19T04:38:38.232Z,1.40
2018-12-19T04:41:06.928Z,1.33
2018-12-19T04:43:35.931Z,1.26
2018-12-19T04:46:04.848Z,1.23
2018-12-19T04:48:33.749Z,1.31
2018-12-19T04:51:02.745Z,1.35
2018-12-19T04:53:31.897Z,1.36
2018-12-19T04:56:00.819Z,1.34
2018-12-19T04:58:29.800Z,1.29
2018-12-19T05:00:58.885Z,1.26
2018-12-19T05:03:27.924Z,1.25
2018-12-19T05:05:57.125Z,1.27
2018-12-19T05:08:26.194Z,1.29
2018-12-19T05:10:55.288Z,1.30
2018-12-19T05:13:24.171Z,1.26
2018-12-19T05:15:53.131Z,1.36
2018-12-19T05:18:22.164Z,1.32
2018-12-19T05:20:51.301Z,1.31
2018-12-19T05:23:20.435Z,1.37
2018-12-19T05:25:49.207Z,1.40
2018-12-19T05:28:18.039Z,1.38
2018-12-19T05:30:47.111Z,1.39
2018-12-19T05:33:16.247Z,1.40
2018-12-19T05:35:45.295Z,1.47
2018-12-19T05:38:14.287Z,1.48
2018-12-19T05:40:43.340Z,1.47
2018-12-19T05:43:12.191Z,1.44
2018-12-19T05:45:41.319Z,1.40
2018-12-19T05:48:10.379Z,1.44
2018-12-19T05:50:39.346Z,1.42
2018-12-19T05:53:08.384Z,1.44
2018-12-19T05:55:37.296Z,1.46
2018-12-19T05:58:06.485Z,1.44
2018-12-19T06:00:35.833Z,1.42
2018-12-19T06:03:04.643Z,1.39
2018-12-19T06:05:33.443Z,1.36
2018-12-19T06:08:02.562Z,1.37
2018-12-19T06:10:31.311Z,1.39
2018-12-19T06:13:00.409Z,1.42
2018-12-19T06:15:29.482Z,1.47
2018-12-19T06:17:58.383Z,1.53
2018-12-19T06:20:27.349Z,1.54
2018-12-19T06:22:56.386Z,1.54
2018-12-19T06:25:25.360Z,1.55
2018-12-19T06:27:54.688Z,1.63
2018-12-19T06:30:23.882Z,1.64
2018-12-19T06:32:53.163Z,1.62
2018-12-19T06:35:22.166Z,1.67
2018-12-19T06:37:50.854Z,1.74
2018-12-19T06:40:19.840Z,1.75
2018-12-19T06:42:49.009Z,1.77
2018-12-19T06:45:17.895Z,1.85
2018-12-19T06:47:47.171Z,1.92
2018-12-19T06:50:16.209Z,1.89
2018-12-19T06:52:45.182Z,1.96
2018-12-19T06:55:13.957Z,1.98
2018-12-19T06:57:43.010Z,2.01
2018-12-19T07:00:11.961Z,2.01
2018-12-19T07:02:41.086Z,2.04
2018-12-19T07:05:10.072Z,1.98
2018-12-19T07:07:39.192Z,2.01
2018-12-19T07:10:08.522Z,2.03
2018-12-19T07:12:37.444Z,2.03
2018-12-19T07:15:06.672Z,2.01
2018-12-19T07:17:35.824Z,1.97
2018-12-19T07:20:04.874Z,1.94
2018-12-19T07:22:33.921Z,2.01
2018-12-19T07:25:02.800Z,2.08
2018-12-19T07:27:31.940Z,2.12
2018-12-19T07:30:00.629Z,2.16
2018-12-19T07:32:29.762Z,2.23
2018-12-19T07:34:58.507Z,2.33
2018-12-19T07:37:27.625Z,2.42
2018-12-19T07:39:56.429Z,2.55
2018-12-19T07:42:25.467Z,2.64
2018-12-19T07:44:54.165Z,2.56
2018-12-19T07:47:23.220Z,2.38
2018-12-19T07:49:52.015Z,2.41
2018-12-19T07:52:21.092Z,2.57
2018-12-19T07:54:50.277Z,2.58
2018-12-19T07:57:19.387Z,2.71
2018-12-19T07:59:48.375Z,2.78
2018-12-19T08:02:17.539Z,2.71
2018-12-19T08:04:46.778Z,2.68
2018-12-19T08:07:15.961Z,2.70
2018-12-19T08:09:45.072Z,2.72
2018-12-19T08:12:13.985Z,2.72
2018-12-19T08:14:42.967Z,2.65
2018-12-19T08:17:11.828Z,2.69
2018-12-19T08:19:40.873Z,2.76
2018-12-19T08:22:09.926Z,2.88
2018-12-19T08:24:38.857Z,2.96
2018-12-19T08:27:07.770Z,2.94
2018-12-19T08:29:36.909Z,3.10
2018-12-19T08:32:05.862Z,3.25
2018-12-19T08:34:34.819Z,3.30
2018-12-19T08:37:03.924Z,3.46
2018-12-19T08:39:32.858Z,3.70
2018-12-19T08:42:01.912Z,3.86
2018-12-19T08:44:38.379Z,3.98
2018-12-19T08:47:07.688Z,4.16
2018-12-19T08:49:36.866Z,4.18
2018-12-19T08:52:06.075Z,4.33
2018-12-19T08:54:35.014Z,4.39
2018-12-19T08:57:03.757Z,4.44
2018-12-19T08:59:32.756Z,4.47
2018-12-19T09:02:01.685Z,4.61
2018-12-19T09:04:30.512Z,4.72
2018-12-19T09:06:59.193Z,4.71
2018-12-19T09:09:28.250Z,4.44
2018-12-19T09:11:57.060Z,4.29
2018-12-19T09:14:26.039Z,4.32
2018-12-19T09:16:55.235Z,4.41
2018-12-19T09:19:24.162Z,4.34
2018-12-19T09:21:53.256Z,4.25
2018-12-19T09:24:22.311Z,4.24
2018-12-19T09:26:51.340Z,4.24
2018-12-19T09:29:20.409Z,4.34
2018-12-19T09:31:49.680Z,4.41
2018-12-19T09:34:18.625Z,4.46
2018-12-19T09:36:47.670Z,4.51
2018-12-19T09:39:16.682Z,4.62
2018-12-19T09:41:45.596Z,4.62
2018-12-19T09:44:14.662Z,4.63
2018-12-19T09:46:43.792Z,4.63
2018-12-19T09:49:13.932Z,4.51
2018-12-19T09:51:42.930Z,4.55
2018-12-19T09:54:11.839Z,4.64
2018-12-19T09:56:40.948Z,4.74
2018-12-19T09:59:09.871Z,4.78
2018-12-19T10:01:38.780Z,4.90
2018-12-19T10:04:07.816Z,4.96
2018-12-19T10:06:36.875Z,4.95
2018-12-19T10:09:14.528Z,5.08
2018-12-19T10:11:39.118Z,5.10
2018-12-19T10:14:08.136Z,5.10
2018-12-19T10:16:37.171Z,5.01
2018-12-19T10:19:05.899Z,4.92
2018-12-19T10:21:35.220Z,4.76
2018-12-19T10:24:04.386Z,4.67
2018-12-19T10:26:33.262Z,4.63
2018-12-19T10:29:02.265Z,4.73
2018-12-19T10:31:31.389Z,4.85
2018-12-19T10:34:00.337Z,4.78
2018-12-19T10:36:34.553Z,4.84
2018-12-19T10:39:03.997Z,4.90
2018-12-19T10:41:32.933Z,4.97
2018-12-19T10:44:01.937Z,4.90
2018-12-19T10:46:31.112Z,4.93
2018-12-19T10:49:00.134Z,4.99
2018-12-19T10:51:29.269Z,5.09
2018-12-19T10:53:58.290Z,5.16
2018-12-19T10:56:27.311Z,5.16
2018-12-19T10:58:56.106Z,5.25
2018-12-19T11:01:25.302Z,5.19
2018-12-19T11:03:54.301Z,5.23
2018-12-19T11:06:23.383Z,5.16
2018-12-19T11:08:52.376Z,5.17
2018-12-19T11:11:21.207Z,5.16
2018-12-19T11:13:50.134Z,5.19
2018-12-19T11:16:19.351Z,5.17
2018-12-19T11:18:48.351Z,5.15
2018-12-19T11:21:17.444Z,5.07
2018-12-19T11:23:46.463Z,5.19
2018-12-19T11:26:15.173Z,5.33
2018-12-19T11:28:44.045Z,5.15
2018-12-19T11:31:13.001Z,5.03
2018-12-19T11:33:41.957Z,4.98
2018-12-19T11:36:11.029Z,5.01
2018-12-19T11:38:40.185Z,4.91
2018-12-19T11:41:08.968Z,4.81
2018-12-19T11:43:37.868Z,4.73
2018-12-19T11:46:06.884Z,4.83
2018-12-19T11:48:35.740Z,4.72
2018-12-19T11:51:05.046Z,4.83
2018-12-19T11:53:34.684Z,4.82
2018-12-19T11:56:03.836Z,4.94
2018-12-19T11:58:33.626Z,4.89
2018-12-19T12:01:02.589Z,4.92
2018-12-19T12:03:31.638Z,4.87
2018-12-19T12:06:00.640Z,4.81
2018-12-19T12:08:29.618Z,4.76
2018-12-19T12:10:58.534Z,4.82
2018-12-19T12:13:27.724Z,4.89
2018-12-19T12:15:56.852Z,5.02
2018-12-19T12:18:25.949Z,4.98
2018-12-19T12:20:54.960Z,4.93
2018-12-19T12:23:23.933Z,4.93
2018-12-19T12:25:53.089Z,5.14
2018-12-19T12:28:22.146Z,5.20
2018-12-19T12:30:51.070Z,5.21
2018-12-19T12:33:20.259Z,5.22
2018-12-19T12:35:49.641Z,5.28
2018-12-19T12:38:18.620Z,5.30
2018-12-19T12:40:47.772Z,5.36
2018-12-19T12:43:16.702Z,5.31
2018-12-19T12:45:45.785Z,5.30
2018-12-19T12:48:14.843Z,5.32
2018-12-19T12:50:43.941Z,5.24
2018-12-19T12:53:12.598Z,5.09
2018-12-19T12:55:41.483Z,5.04
2018-12-19T12:58:10.267Z,4.98
2018-12-19T13:00:39.279Z,4.96
2018-12-19T13:03:08.336Z,4.86
2018-12-19T13:05:37.330Z,4.88
2018-12-19T13:08:06.462Z,4.87
2018-12-19T13:10:36.353Z,4.93
2018-12-19T13:13:05.395Z,4.87
2018-12-19T13:15:44.211Z,4.83
2018-12-19T13:18:14.673Z,4.85
2018-12-19T13:20:43.740Z,4.84
2018-12-19T13:23:12.805Z,4.94
2018-12-19T13:25:41.915Z,4.95
2018-12-19T13:28:11.201Z,4.97
2018-12-19T13:30:40.301Z,4.86
2018-12-19T13:33:09.205Z,4.78
2018-12-19T13:35:38.196Z,4.73
2018-12-19T13:38:07.264Z,4.73
2018-12-19T13:40:36.162Z,4.71
2018-12-19T13:43:05.009Z,4.72
2018-12-19T13:45:33.765Z,4.78
2018-12-19T13:48:02.839Z,4.78
2018-12-19T13:50:31.933Z,4.86
2018-12-19T13:53:00.826Z,4.97
2018-12-19T13:55:30.998Z,4.99
2018-12-19T13:58:00.089Z,4.90
2018-12-19T14:00:28.933Z,4.79
2018-12-19T14:02:58.556Z,4.63
2018-12-19T14:05:27.500Z,4.45
2018-12-19T14:07:56.443Z,4.37
2018-12-19T14:10:25.422Z,4.30
2018-12-19T14:12:54.416Z,4.25
2018-12-19T14:15:23.518Z,4.28
2018-12-19T14:17:52.584Z,4.28
2018-12-19T14:20:21.677Z,4.27
2018-12-19T14:22:50.814Z,4.27
2018-12-19T14:25:19.699Z,4.27
2018-12-19T14:27:48.396Z,4.26
2018-12-19T14:30:17.439Z,4.21
2018-12-19T14:32:46.411Z,4.21
2018-12-19T14:35:15.283Z,4.24
2018-12-19T14:37:44.303Z,4.26
2018-12-19T14:40:13.356Z,4.25
2018-12-19T14:42:42.387Z,4.17
2018-12-19T14:45:11.271Z,4.27
2018-12-19T14:47:40.531Z,4.31
2018-12-19T14:50:09.696Z,4.35
2018-12-19T14:52:38.768Z,4.35
2018-12-19T14:55:07.939Z,4.38
2018-12-19T14:57:36.976Z,4.33
2018-12-19T15:00:07.252Z,4.27
2018-12-19T15:02:36.000Z,4.26
2018-12-19T15:05:05.384Z,4.28
2018-12-19T15:07:34.516Z,4.29
2018-12-19T15:10:03.874Z,4.30
2018-12-19T15:12:32.892Z,4.26
2018-12-19T15:15:01.762Z,4.30
2018-12-19T15:17:30.454Z,4.35
2018-12-19T15:19:59.375Z,4.31
2018-12-19T15:22:28.471Z,4.27
2018-12-19T15:24:57.658Z,4.22
2018-12-19T15:27:26.721Z,4.24
2018-12-19T15:29:55.722Z,4.25
2018-12-19T15:32:24.496Z,4.28
2018-12-19T15:34:53.521Z,4.25
2018-12-19T15:37:22.537Z,4.22
2018-12-19T15:39:51.524Z,4.25
2018-12-19T15:42:20.553Z,4.21
2018-12-19T15:44:49.808Z,4.23
2018-12-19T15:47:18.669Z,4.14
2018-12-19T15:49:47.850Z,4.13
2018-12-19T15:52:16.895Z,4.06
2018-12-19T15:54:45.896Z,3.92
2018-12-19T15:57:14.932Z,3.83
2018-12-19T15:59:44.060Z,3.73
2018-12-19T16:02:13.133Z,3.65
2018-12-19T16:44:38.807Z,2.78
2018-12-19T16:47:07.629Z,2.76
2018-12-19T16:49:36.557Z,2.77
2018-12-19T16:52:05.332Z,2.74
2018-12-19T16:54:34.123Z,2.65
2018-12-19T16:57:02.864Z,2.75
2018-12-19T16:59:31.688Z,2.72
2018-12-19T17:02:00.489Z,2.72
2018-12-19T17:04:29.252Z,2.68
2018-12-19T17:06:58.003Z,2.69
2018-12-19T17:09:26.726Z,2.65
2018-12-19T17:11:55.455Z,2.64
2018-12-19T17:14:24.171Z,2.59
2018-12-19T17:16:52.915Z,2.63
2018-12-19T17:19:21.668Z,2.58
2018-12-19T17:21:50.474Z,2.53
2018-12-19T17:24:21.158Z,2.48
2018-12-19T17:26:50.004Z,2.39
2018-12-19T17:29:18.784Z,2.35
2018-12-19T17:31:47.862Z,2.30
2018-12-19T17:34:16.666Z,2.26
2018-12-19T17:36:45.452Z,2.19
2018-12-19T17:39:14.329Z,2.10
2018-12-19T17:41:42.976Z,2.04
2018-12-19T17:44:11.755Z,1.97
2018-12-19T17:46:40.544Z,1.93
2018-12-19T17:49:09.492Z,1.89
2018-12-19T17:51:38.209Z,1.87
2018-12-19T17:54:07.023Z,1.89
2018-12-19T17:56:35.778Z,1.89
2018-12-19T17:59:04.607Z,1.90
2018-12-19T18:01:33.432Z,1.93
2018-12-19T18:12:38.553Z,1.92
2018-12-19T18:15:07.894Z,1.96
2018-12-19T18:17:36.831Z,1.91
2018-12-19T18:20:06.313Z,1.99
2018-12-19T18:22:35.114Z,2.03
2018-12-19T18:27:54.325Z,1.98
2018-12-19T18:30:23.013Z,1.96
2018-12-19T18:35:31.296Z,1.92
2018-12-19T18:38:00.000Z,1.91
2018-12-19T19:21:27.201Z,1.81
2018-12-19T19:23:56.097Z,1.79
2018-12-19T19:26:24.831Z,1.79
2018-12-19T19:28:53.481Z,1.81
2018-12-19T19:31:22.396Z,1.80
2018-12-19T19:33:51.196Z,1.85
2018-12-19T19:36:19.917Z,1.76
2018-12-19T19:38:48.742Z,1.76
2018-12-19T19:41:17.570Z,1.62
2018-12-19T19:43:46.378Z,1.78
2018-12-19T19:46:15.072Z,1.75
2018-12-19T19:48:44.023Z,1.75
2018-12-19T19:51:16.894Z,1.69
2018-12-19T19:53:43.481Z,1.64
2018-12-19T19:56:12.167Z,1.60
2018-12-19T19:58:40.952Z,1.62
2018-12-19T20:01:09.709Z,1.43
2018-12-19T20:03:38.529Z,1.50
2018-12-19T20:06:07.316Z,1.48
2018-12-19T20:08:36.111Z,1.53
2018-12-19T20:11:04.897Z,1.47
2018-12-19T20:13:33.654Z,1.43
2018-12-19T20:16:02.575Z,1.36
2018-12-19T20:18:31.425Z,1.29
2018-12-19T20:21:00.217Z,1.23
2018-12-19T20:23:28.856Z,1.17
2018-12-19T20:25:57.600Z,1.15
2018-12-19T20:28:26.432Z,1.16
2018-12-19T20:30:55.210Z,1.09
2018-12-19T20:33:23.954Z,1.00
2018-12-19T20:35:52.708Z,1.07
2018-12-19T20:38:21.485Z,1.08
2018-12-19T20:40:50.161Z,1.09
2018-12-19T20:43:18.976Z,1.05
2018-12-19T20:45:47.792Z,0.99
2018-12-19T20:48:16.684Z,0.88
2018-12-19T20:50:45.400Z,0.77
2018-12-19T20:53:14.173Z,0.71
2018-12-19T20:55:42.893Z,0.62
2018-12-19T20:58:11.711Z,0.73
2018-12-19T21:00:40.476Z,0.73
2018-12-19T21:03:09.128Z,0.65
2018-12-19T21:05:37.887Z,0.58
2018-12-19T21:08:06.600Z,0.53
2018-12-19T21:13:25.369Z,0.50
2018-12-19T21:15:54.299Z,0.51
2018-12-19T21:18:28.267Z,0.47
2018-12-19T21:20:57.894Z,0.44
2018-12-19T21:54:50.866Z,0.55
2018-12-19T21:57:19.774Z,0.54
2018-12-19T21:59:48.598Z,0.53
2018-12-19T22:02:17.461Z,0.63
2018-12-19T22:04:46.196Z,0.74
2018-12-19T22:07:14.990Z,0.84
2018-12-19T22:09:43.812Z,0.79
2018-12-19T22:12:15.452Z,0.80
2018-12-19T22:14:44.250Z,0.76
2018-12-19T22:17:54.660Z,0.69
2018-12-19T22:20:23.406Z,0.67
2018-12-19T22:22:52.392Z,0.61
2018-12-19T22:25:21.166Z,0.57
2018-12-19T22:27:50.075Z,0.59
2018-12-19T22:30:18.921Z,0.54
2018-12-19T22:32:47.740Z,0.54
2018-12-19T22:35:16.542Z,0.53
2018-12-19T22:37:45.257Z,0.46
2018-12-19T22:40:14.013Z,0.59
2018-12-19T22:42:42.736Z,0.61
2018-12-19T22:45:11.542Z,0.57
2018-12-19T22:47:40.293Z,0.51
2018-12-19T22:50:09.033Z,0.46
2018-12-19T22:52:37.794Z,0.42
2018-12-19T22:55:06.679Z,0.35
2018-12-19T22:57:35.691Z,0.33
2018-12-19T23:00:07.529Z,0.31
2018-12-19T23:03:07.101Z,0.30
2018-12-19T23:05:55.003Z,0.21
2018-12-19T23:08:23.871Z,0.25
2018-12-19T23:10:52.609Z,0.27
2018-12-19T23:13:21.488Z,0.26
2018-12-19T23:15:50.369Z,0.26
2018-12-19T23:18:24.429Z,0.26
2018-12-19T23:20:53.203Z,0.31
2018-12-19T23:23:22.000Z,0.22
2018-12-19T23:25:50.695Z,0.25
2018-12-19T23:28:19.389Z,0.31
2018-12-19T23:30:48.251Z,0.36
2018-12-19T23:33:16.960Z,0.43
2018-12-19T23:35:45.689Z,0.43
2018-12-19T23:38:14.734Z,0.44
2018-12-19T23:40:43.549Z,0.42
2018-12-19T23:43:12.215Z,0.34
2018-12-19T23:45:41.013Z,0.23
2018-12-19T23:48:09.855Z,0.23
2018-12-19T23:50:38.867Z,0.17
2018-12-19T23:53:07.678Z,0.12
2018-12-19T23:55:36.479Z,0.07
2018-12-19T23:58:05.287Z,0.06
